Time;durP1;ratioP1;P1;durP2;ratioP2;P2;SDS_P1;SDS_P2;PMS_P1;PMS_P2;Temp;Humidity;BMP_temperature;BMP_pressure;BME280_temperature;BME280_humidity;BME280_pressure;Samples;Min_cycle;Max_cycle;Signal;HPM_P1;HPM_P2
2023/05/22 00:01:37;;;;;;;2.80;2.30;;;;;;;21.78;47.42;101732.81;5024195;28;20052;-33
2023/05/22 00:04:04;;;;;;;2.33;2.10;;;;;;;21.78;47.25;101716.63;5023420;28;20049;-33
2023/05/22 00:06:32;;;;;;;2.60;2.15;;;;;;;21.78;47.69;101716.63;5025743;28;20438;-33
2023/05/22 00:08:59;;;;;;;3.45;2.45;;;;;;;21.78;47.24;101725.56;5028068;28;20053;-34
2023/05/22 00:11:26;;;;;;;2.95;2.17;;;;;;;21.78;47.17;101703.16;5023590;28;20172;-33
2023/05/22 00:13:53;;;;;;;3.90;1.90;;;;;;;21.78;46.99;101700.44;5023647;28;20119;-33
2023/05/22 00:16:19;;;;;;;2.15;1.95;;;;;;;21.78;47.34;101713.94;5022787;28;20054;-34
2023/05/22 00:18:46;;;;;;;3.83;2.20;;;;;;;21.77;47.02;101723.88;5020807;28;20525;-33
2023/05/22 00:21:13;;;;;;;2.95;2.10;;;;;;;21.78;47.02;101711.25;5022840;28;20104;-33
2023/05/22 00:23:40;;;;;;;2.92;2.00;;;;;;;21.78;47.44;101705.84;5019604;28;20111;-33
2023/05/22 00:26:06;;;;;;;2.80;2.15;;;;;;;21.78;47.02;101703.16;5021019;28;20053;-34
2023/05/22 00:28:33;;;;;;;2.78;2.28;;;;;;;21.77;47.33;101696.91;5021641;28;20449;-33
2023/05/22 00:31:00;;;;;;;2.70;2.10;;;;;;;21.77;47.23;101693.38;5025683;28;20409;-33
2023/05/22 00:33:26;;;;;;;3.53;1.98;;;;;;;21.77;46.93;101677.16;5023405;28;20405;-33
2023/05/22 00:35:53;;;;;;;2.00;1.75;;;;;;;21.76;47.46;101673.63;5020463;28;20046;-33
2023/05/22 00:38:31;;;;;;;2.92;1.80;;;;;;;21.74;47.28;101677.47;5020442;28;20056;-33
2023/05/22 00:41:03;;;;;;;3.55;1.92;;;;;;;21.75;47.18;101671.94;5035239;28;20152;-33
2023/05/22 00:43:30;;;;;;;2.47;1.92;;;;;;;21.74;47.22;101662.13;5017594;28;20454;-33
2023/05/22 00:45:57;;;;;;;2.25;1.90;;;;;;;21.73;47.16;101660.44;5022747;28;20056;-34
2023/05/22 00:48:24;;;;;;;2.33;1.70;;;;;;;21.73;47.41;101662.31;5018199;28;20107;-33
2023/05/22 00:50:53;;;;;;;2.92;1.77;;;;;;;21.73;47.37;101654.22;5023568;28;20053;-33
2023/05/22 00:53:21;;;;;;;2.42;1.75;;;;;;;21.73;47.31;101640.72;5021831;28;20104;-33
2023/05/22 00:55:48;;;;;;;2.60;2.10;;;;;;;21.72;47.26;101639.88;5024668;28;20053;-33
2023/05/22 00:58:18;;;;;;;2.20;1.80;;;;;;;21.69;47.23;101646.41;5017739;28;20511;-33
2023/05/22 01:00:45;;;;;;;3.63;2.00;;;;;;;21.69;47.45;101659.06;5020990;28;20434;-33
2023/05/22 01:03:13;;;;;;;2.05;1.85;;;;;;;21.67;47.52;101651.16;5018440;28;20132;-33
2023/05/22 01:05:40;;;;;;;2.95;1.92;;;;;;;21.67;47.25;101653.84;5022284;28;20081;-34
2023/05/22 01:08:08;;;;;;;2.22;1.92;;;;;;;21.67;47.24;101653.84;5027369;28;20054;-33
2023/05/22 01:10:36;;;;;;;4.47;2.00;;;;;;;21.66;47.40;101653.97;5025271;28;20140;-34
2023/05/22 01:13:19;;;;;;;4.10;2.10;;;;;;;21.64;47.42;101646.06;5021740;28;20053;-36
2023/05/22 01:15:56;;;;;;;2.53;1.80;;;;;;;21.64;47.31;101645.22;5018631;28;20389;-33
2023/05/22 01:18:30;;;;;;;3.72;2.60;;;;;;;21.63;47.71;101644.38;5023862;28;20053;-33
2023/05/22 01:21:22;;;;;;;2.08;1.85;;;;;;;21.61;47.64;101646.38;5024358;28;20107;-33
2023/05/22 01:24:10;;;;;;;2.83;2.10;;;;;;;21.62;47.63;101648.06;5024621;28;20057;-34
2023/05/22 01:27:04;;;;;;;3.70;2.10;;;;;;;21.61;47.73;101642.81;5021091;28;20166;-33
2023/05/22 01:29:41;;;;;;;3.00;1.80;;;;;;;21.61;47.63;101645.53;5024227;28;20046;-33
2023/05/22 01:32:12;;;;;;;3.33;2.55;;;;;;;21.61;47.28;101632.03;5024765;28;20439;-33
2023/05/22 01:34:41;;;;;;;4.43;2.28;;;;;;;21.60;47.33;101630.34;5026772;28;20104;-33
2023/05/22 01:37:08;;;;;;;2.97;2.20;;;;;;;21.57;47.71;101623.41;5025274;28;20818;-33
2023/05/22 01:39:36;;;;;;;3.20;2.08;;;;;;;21.57;47.52;101628.81;5020579;28;20104;-33
2023/05/22 01:42:04;;;;;;;2.78;2.17;;;;;;;21.57;47.61;101623.41;5022470;28;20384;-35
2023/05/22 01:44:31;;;;;;;2.47;2.08;;;;;;;21.57;47.65;101617.16;5022482;28;20049;-33
2023/05/22 01:47:03;;;;;;;2.85;2.00;;;;;;;21.55;47.51;101625.44;5023223;28;20104;-33
2023/05/22 01:49:34;;;;;;;4.63;2.35;;;;;;;21.56;47.65;101632.50;5023197;28;20140;-34
2023/05/22 01:52:08;;;;;;;3.20;2.33;;;;;;;21.55;47.76;101622.72;5019920;28;20111;-33
2023/05/22 01:54:42;;;;;;;2.90;2.00;;;;;;;;;;5023672;28;20049;-33
2023/05/22 01:57:18;;;;;;;3.55;2.05;;;;;;;;;;5021505;28;20092;-34
2023/05/22 01:59:55;;;;;;;3.15;1.92;;;;;;;21.54;47.85;101617.47;5025386;28;20503;-33
2023/05/22 02:02:23;;;;;;;2.85;2.25;;;;;;;21.55;47.96;101622.72;5019333;28;20589;-34
2023/05/22 02:05:00;;;;;;;2.33;1.85;;;;;;;21.52;47.71;101617.66;5027933;28;20054;-34
2023/05/22 02:07:29;;;;;;;2.88;2.58;;;;;;;21.52;47.78;101606.84;5023020;28;20053;-33
2023/05/22 02:09:57;;;;;;;3.97;2.30;;;;;;;21.50;47.47;101606.16;5026909;28;20041;-33
2023/05/22 02:12:24;;;;;;;3.58;2.33;;;;;;;21.51;47.23;101605.16;5023055;28;20121;-33
2023/05/22 02:14:51;;;;;;;5.72;2.72;;;;;;;21.50;47.65;101602.63;5024965;28;20314;-33
2023/05/22 02:17:17;;;;;;;3.55;2.55;;;;;;;21.49;47.82;101595.53;5021008;28;20045;-34
2023/05/22 02:19:44;;;;;;;3.17;2.35;;;;;;;21.48;47.43;101597.38;5024538;28;20091;-34
2023/05/22 02:22:14;;;;;;;3.80;2.20;;;;;;;21.48;47.77;101597.38;5021115;28;20127;-33
2023/05/22 02:24:42;;;;;;;3.20;2.38;;;;;;;21.47;47.95;101589.44;5028322;28;20061;-33
2023/05/22 02:27:09;;;;;;;5.40;2.35;;;;;;;21.46;47.64;101594.00;5026347;28;20045;-33
2023/05/22 02:29:36;;;;;;;2.97;2.33;;;;;;;21.45;47.66;101584.22;5020198;28;20046;-34
2023/05/22 02:32:03;;;;;;;3.85;2.30;;;;;;;21.45;47.97;101589.59;5019092;28;20053;-33
2023/05/22 02:34:30;;;;;;;4.03;2.33;;;;;;;21.44;48.22;101583.38;5022197;28;20077;-33
2023/05/22 02:37:03;;;;;;;3.72;2.20;;;;;;;21.43;47.59;101584.38;5030595;28;20076;-33
2023/05/22 02:39:29;;;;;;;3.50;2.45;;;;;;;21.42;47.64;101584.53;5023714;28;20053;-33
2023/05/22 02:41:56;;;;;;;3.20;2.25;;;;;;;21.42;47.76;101589.91;5025322;28;20080;-33
2023/05/22 02:44:22;;;;;;;3.38;2.17;;;;;;;21.42;47.85;101593.44;5027056;28;20049;-33
2023/05/22 02:46:49;;;;;;;3.38;2.30;;;;;;;21.41;47.97;101590.94;5027228;28;20049;-33
2023/05/22 02:49:16;;;;;;;2.03;1.80;;;;;;;21.40;47.45;101592.78;5015986;28;20088;-33
2023/05/22 02:51:46;;;;;;;2.78;1.80;;;;;;;21.40;47.69;101582.00;5027391;28;20061;-34
2023/05/22 02:54:14;;;;;;;3.22;2.15;;;;;;;21.39;47.76;101583.00;5025413;28;20095;-33
2023/05/22 02:56:44;;;;;;;2.08;1.70;;;;;;;21.39;47.99;101576.78;5026599;28;20056;-34
2023/05/22 02:59:10;;;;;;;3.58;2.00;;;;;;;21.38;47.77;101581.28;5022964;28;20103;-33
2023/05/22 03:01:38;;;;;;;3.05;2.03;;;;;;;21.38;47.81;101569.66;5025319;28;20442;-33
2023/05/22 03:04:08;;;;;;;2.83;1.90;;;;;;;21.37;47.36;101578.75;5029569;28;20137;-33
2023/05/22 03:06:35;;;;;;;1.95;1.75;;;;;;;21.36;47.46;101569.00;5025626;28;20080;-33
2023/05/22 03:09:03;;;;;;;2.65;2.05;;;;;;;21.36;47.96;101569.00;5024225;28;20259;-34
2023/05/22 03:11:30;;;;;;;2.58;1.83;;;;;;;21.35;47.67;101572.69;5021706;28;20203;-33
2023/05/22 03:13:57;;;;;;;2.20;1.75;;;;;;;21.35;48.09;101567.31;5027073;28;20053;-33
2023/05/22 03:16:25;;;;;;;2.72;2.00;;;;;;;21.34;47.72;101565.59;5024380;28;20057;-33
2023/05/22 03:19:09;;;;;;;1.92;1.70;;;;;;;21.31;47.93;101564.03;5026134;28;20441;-33
2023/05/22 03:21:36;;;;;;;2.50;1.95;;;;;;;21.34;47.66;101568.28;5021610;28;20073;-33
2023/05/22 03:24:03;;;;;;;2.25;2.00;;;;;;;21.32;48.10;101568.44;5020228;28;20195;-33
2023/05/22 03:26:30;;;;;;;2.55;2.10;;;;;;;21.32;47.55;101564.88;5019526;28;20053;-33
2023/05/22 03:28:56;;;;;;;2.55;2.00;;;;;;;21.32;48.05;101567.56;5025882;28;20397;-33
2023/05/22 03:31:24;;;;;;;2.80;2.13;;;;;;;21.32;47.82;101564.88;5022496;28;20049;-33
2023/05/22 03:33:51;;;;;;;3.08;2.08;;;;;;;21.30;47.84;101566.88;5020968;28;20057;-33
2023/05/22 03:36:20;;;;;;;2.15;1.67;;;;;;;21.31;47.70;101565.91;5024945;28;20049;-33
2023/05/22 03:38:46;;;;;;;2.38;1.80;;;;;;;21.30;48.09;101572.25;5021377;28;20173;-33
2023/05/22 03:41:13;;;;;;;2.40;2.05;;;;;;;21.30;48.07;101564.19;5023830;28;20782;-33
2023/05/22 03:43:40;;;;;;;2.75;2.10;;;;;;;21.29;48.10;101560.63;5021559;28;20038;-33
2023/05/22 03:46:10;;;;;;;2.90;1.80;;;;;;;21.29;48.17;101562.50;5024251;28;20053;-34
2023/05/22 03:48:37;;;;;;;2.35;2.13;;;;;;;21.29;47.81;101567.88;5021127;28;20045;-33
2023/05/22 03:51:04;;;;;;;2.20;2.00;;;;;;;21.29;47.75;101565.19;5025112;28;20124;-33
2023/05/22 03:53:31;;;;;;;2.42;1.85;;;;;;;21.28;48.13;101566.19;5024205;28;20046;-33
2023/05/22 03:55:58;;;;;;;2.83;1.90;;;;;;;21.27;47.52;101568.06;5025374;28;20085;-33
2023/05/22 03:58:25;;;;;;;2.30;1.85;;;;;;;21.27;48.21;101572.59;5020599;28;20129;-33
2023/05/22 04:00:57;;;;;;;3.80;2.60;;;;;;;21.26;48.35;101570.88;5036848;28;20085;-33
2023/05/22 04:03:24;;;;;;;2.42;1.90;;;;;;;21.25;47.86;101567.34;5027064;28;20527;-33
2023/05/22 04:05:50;;;;;;;2.20;1.92;;;;;;;21.26;48.13;101558.25;5025144;28;20050;-33
2023/05/22 04:08:17;;;;;;;2.08;1.77;;;;;;;21.25;47.81;101564.66;5023273;28;20057;-33
2023/05/22 04:10:45;;;;;;;2.53;1.70;;;;;;;21.24;47.51;101562.97;5021119;28;20530;-33
2023/05/22 04:13:12;;;;;;;2.78;1.70;;;;;;;21.24;47.81;101570.22;5022462;28;20337;-33
2023/05/22 04:15:40;;;;;;;2.85;1.80;;;;;;;21.24;47.97;101575.59;5023496;28;20149;-33
2023/05/22 04:18:07;;;;;;;2.58;1.85;;;;;;;21.25;48.00;101571.91;5026392;28;20052;-33
2023/05/22 04:20:34;;;;;;;2.13;1.90;;;;;;;21.21;47.80;101565.97;5029581;28;20715;-33
2023/05/22 04:23:01;;;;;;;2.00;1.52;;;;;;;21.21;48.24;101571.38;5026641;28;20084;-33
2023/05/22 04:25:28;;;;;;;3.60;1.98;;;;;;;21.21;48.16;101582.16;5022755;28;20121;-34
2023/05/22 04:27:55;;;;;;;4.22;2.05;;;;;;;21.20;47.94;101589.41;5017451;28;20689;-33
2023/05/22 04:30:24;;;;;;;2.00;1.73;;;;;;;21.20;47.91;101589.41;5021862;28;20137;-33
2023/05/22 04:32:51;;;;;;;2.40;2.20;;;;;;;21.21;47.57;101590.25;5027456;28;20100;-33
2023/05/22 04:35:18;;;;;;;2.40;1.90;;;;;;;21.22;47.77;101597.31;5025591;28;20041;-33
2023/05/22 04:37:45;;;;;;;2.10;1.90;;;;;;;21.21;47.96;101590.25;5019604;28;20057;-33
2023/05/22 04:40:13;;;;;;;2.20;2.00;;;;;;;21.23;48.00;101598.16;5020641;28;20046;-33
2023/05/22 04:42:41;;;;;;;3.13;2.05;;;;;;;21.24;47.91;101606.13;5021616;28;20050;-33
2023/05/22 04:45:08;;;;;;;3.15;2.20;;;;;;;21.25;47.74;101607.78;5023941;28;20053;-33
2023/05/22 04:47:37;;;;;;;3.70;2.45;;;;;;;21.27;47.86;101619.28;5024490;28;20084;-34
2023/05/22 04:50:04;;;;;;;4.45;2.50;;;;;;;21.28;48.17;101620.13;5023626;28;20137;-33
2023/05/22 04:52:30;;;;;;;3.20;2.47;;;;;;;21.28;48.17;101629.06;5019506;28;20724;-33
2023/05/22 04:54:57;;;;;;;2.97;2.33;;;;;;;21.29;47.83;101619.13;5021768;28;20112;-33
2023/05/22 04:57:26;;;;;;;2.42;2.08;;;;;;;21.29;47.86;101619.13;5020210;28;20060;-33
2023/05/22 04:59:53;;;;;;;2.22;1.75;;;;;;;21.31;47.76;101622.53;5021115;28;20046;-33
2023/05/22 05:02:19;;;;;;;2.83;1.75;;;;;;;21.32;47.93;101621.50;5020405;28;20077;-32
2023/05/22 05:04:47;;;;;;;4.20;1.90;;;;;;;21.33;47.76;101620.53;5020516;28;20112;-33
2023/05/22 05:07:16;;;;;;;2.10;1.77;;;;;;;21.34;47.71;101619.53;5019463;28;20080;-33
2023/05/22 05:09:43;;;;;;;3.35;1.80;;;;;;;21.35;47.99;101623.94;5019016;28;20138;-34
2023/05/22 05:12:09;;;;;;;3.35;1.67;;;;;;;21.37;47.94;101635.41;5026815;28;20049;-32
2023/05/22 05:14:36;;;;;;;1.88;1.50;;;;;;;21.38;47.82;101620.91;5018875;28;20707;-33
2023/05/22 05:17:03;;;;;;;2.75;1.83;;;;;;;21.40;47.71;101624.31;5022326;28;20401;-33
2023/05/22 05:19:30;;;;;;;2.10;1.83;;;;;;;21.40;47.51;101621.59;5024385;28;20088;-33
2023/05/22 05:21:57;;;;;;;2.22;1.70;;;;;;;21.43;47.52;101626.69;5022350;28;20465;-33
2023/05/22 05:24:24;;;;;;;2.28;1.67;;;;;;;21.44;47.51;101623.81;5021498;28;20042;-33
2023/05/22 05:26:51;;;;;;;2.60;2.00;;;;;;;21.46;47.85;101615.56;5018914;28;20042;-33
2023/05/22 05:29:17;;;;;;;2.95;1.80;;;;;;;21.48;47.85;101616.28;5020147;28;20054;-33
2023/05/22 05:31:44;;;;;;;2.15;1.80;;;;;;;21.49;47.76;101620.66;5019754;28;20053;-33
2023/05/22 05:34:12;;;;;;;2.85;2.05;;;;;;;21.51;47.48;101621.34;5024681;28;20425;-34
2023/05/22 05:36:39;;;;;;;2.15;1.70;;;;;;;21.52;47.53;101612.25;5024926;28;20049;-34
2023/05/22 05:39:06;;;;;;;1.70;1.55;;;;;;;;;;5023048;28;20088;-34
2023/05/22 05:41:32;;;;;;;2.25;1.48;;;;;;;21.56;47.68;101621.72;5023609;28;20727;-33
2023/05/22 05:44:00;;;;;;;2.22;1.70;;;;;;;21.57;47.54;101614.47;5026032;28;20386;-33
2023/05/22 05:46:26;;;;;;;3.80;1.70;;;;;;;21.58;47.61;101611.59;5026514;28;20049;-33
2023/05/22 05:48:53;;;;;;;2.47;1.88;;;;;;;21.60;47.39;101625.78;5032330;28;20056;-33
2023/05/22 05:51:21;;;;;;;2.42;1.85;;;;;;;21.62;47.27;101623.78;5023947;28;20053;-33
2023/05/22 05:53:48;;;;;;;2.00;1.63;;;;;;;21.62;47.42;101618.38;5026020;28;20099;-33
2023/05/22 05:56:14;;;;;;;2.13;1.63;;;;;;;21.64;47.27;101618.22;5027089;28;20568;-33
2023/05/22 05:58:41;;;;;;;2.00;1.67;;;;;;;21.65;47.23;101618.06;5027139;28;20065;-34
2023/05/22 06:01:08;;;;;;;2.13;1.73;;;;;;;21.67;47.30;101617.94;5024844;28;20057;-33
2023/05/22 06:03:35;;;;;;;2.92;1.70;;;;;;;21.68;47.61;101620.44;5030059;28;20046;-33
2023/05/22 06:06:02;;;;;;;2.65;1.70;;;;;;;21.70;47.46;101617.59;5024190;28;20137;-34
2023/05/22 06:08:31;;;;;;;2.00;1.52;;;;;;;21.72;47.02;101620.16;5022711;28;20529;-33
2023/05/22 06:10:57;;;;;;;1.92;1.45;;;;;;;21.73;47.39;101616.44;5023597;28;20061;-33
2023/05/22 06:13:24;;;;;;;2.38;1.98;;;;;;;21.73;47.25;101617.28;5023016;28;20065;-33
2023/05/22 06:15:51;;;;;;;2.45;1.67;;;;;;;21.76;46.79;101626.91;5025440;28;20053;-33
2023/05/22 06:18:17;;;;;;;3.53;1.90;;;;;;;21.77;47.09;101623.19;5024011;28;20052;-33
2023/05/22 06:20:44;;;;;;;1.98;1.58;;;;;;;21.78;47.04;101614.09;5023760;28;20127;-33
2023/05/22 06:23:11;;;;;;;2.35;2.00;;;;;;;21.79;46.96;101623.88;5031082;28;20468;-33
2023/05/22 06:25:38;;;;;;;3.17;1.90;;;;;;;21.81;46.55;101617.31;5026800;28;20441;-33
2023/05/22 06:28:05;;;;;;;2.63;1.85;;;;;;;21.81;46.88;101620.03;5024689;28;20104;-33
2023/05/22 06:30:32;;;;;;;1.85;1.52;;;;;;;21.82;47.12;101618.16;5021254;28;20077;-33
2023/05/22 06:33:06;;;;;;;3.00;2.03;;;;;;;21.83;46.88;101617.16;5022165;28;20081;-33
2023/05/22 06:35:33;;;;;;;2.65;1.60;;;;;;;21.85;47.29;101620.56;5019277;28;20744;-33
2023/05/22 06:38:00;;;;;;;2.92;1.90;;;;;;;21.85;46.65;101629.50;5022201;28;20062;-33
2023/05/22 06:40:26;;;;;;;3.63;1.92;;;;;;;21.88;46.71;101631.88;5023952;28;20092;-33
2023/05/22 06:42:53;;;;;;;3.67;1.90;;;;;;;21.89;46.78;101635.41;5026533;28;20064;-33
2023/05/22 06:45:20;;;;;;;1.73;1.40;;;;;;;21.89;46.82;101632.72;5022362;28;20632;-32
2023/05/22 06:47:51;;;;;;;1.83;1.63;;;;;;;21.90;46.88;101635.25;5026937;28;20632;-33
2023/05/22 06:50:19;;;;;;;3.67;1.95;;;;;;;21.91;47.06;101636.97;5024928;28;20049;-33
2023/05/22 06:52:46;;;;;;;3.38;2.08;;;;;;;21.90;46.88;101643.34;5026047;28;20049;-33
2023/05/22 06:55:13;;;;;;;2.47;1.80;;;;;;;21.90;46.97;101637.94;5026849;28;20041;-33
2023/05/22 06:57:40;;;;;;;3.47;1.80;;;;;;;21.92;47.00;101635.09;5022668;28;20049;-33
2023/05/22 07:00:08;;;;;;;2.50;1.88;;;;;;;21.92;46.75;101641.34;5020561;28;20352;-34
2023/05/22 07:02:35;;;;;;;2.55;2.00;;;;;;;21.94;46.60;101643.88;5027154;28;20393;-33
2023/05/22 07:05:01;;;;;;;3.53;1.73;;;;;;;21.94;46.76;101644.72;5030461;28;20144;-33
2023/05/22 07:07:28;;;;;;;1.90;1.52;;;;;;;21.94;46.68;101646.56;5022886;28;20433;-33
2023/05/22 07:09:55;;;;;;;2.10;1.90;;;;;;;21.94;46.71;101638.47;5025804;28;20060;-33
2023/05/22 07:12:24;;;;;;;3.28;1.80;;;;;;;21.95;46.70;101645.59;5025449;28;20078;-33
2023/05/22 07:14:52;;;;;;;3.20;2.10;;;;;;;21.96;46.80;101652.66;5026201;28;20121;-33
2023/05/22 07:17:20;;;;;;;2.47;1.75;;;;;;;21.97;46.82;101650.81;5028297;28;20311;-33
2023/05/22 07:19:47;;;;;;;3.45;2.20;;;;;;;21.98;46.60;101647.09;5023086;28;20473;-34
2023/05/22 07:22:14;;;;;;;2.83;2.10;;;;;;;21.97;47.41;101659.75;5024706;28;20512;-33
2023/05/22 07:24:41;;;;;;;4.78;2.58;;;;;;;21.98;46.43;101656.03;5023494;28;20053;-33
2023/05/22 07:27:08;;;;;;;3.00;2.00;;;;;;;21.98;47.06;101658.75;5026660;28;20374;-33
2023/05/22 07:29:35;;;;;;;2.97;2.10;;;;;;;21.99;46.80;101655.06;5027240;28;20053;-33
2023/05/22 07:32:01;;;;;;;3.50;2.63;;;;;;;22.01;47.03;101660.28;5021529;28;20492;-34
2023/05/22 07:34:32;;;;;;;3.42;2.13;;;;;;;22.01;46.92;101663.00;5026243;28;20145;-34
2023/05/22 07:37:00;;;;;;;3.90;2.22;;;;;;;22.01;46.96;101655.72;5022469;28;21747;-33
2023/05/22 07:39:26;;;;;;;3.47;2.20;;;;;;;22.01;47.02;101653.03;5020316;28;20100;-33
2023/05/22 07:41:53;;;;;;;2.83;1.80;;;;;;;22.02;47.11;101652.00;5022892;28;20198;-33
2023/05/22 07:44:22;;;;;;;2.72;1.77;;;;;;;22.02;46.95;101654.72;5022056;28;20053;-33
2023/05/22 07:46:48;;;;;;;2.50;2.05;;;;;;;22.03;46.77;101648.34;5020982;28;20045;-33
2023/05/22 07:49:18;;;;;;;2.08;1.88;;;;;;;22.04;46.70;101658.13;5021741;28;20127;-33
2023/05/22 07:51:45;;;;;;;2.80;1.98;;;;;;;22.04;46.65;101658.13;5019605;28;20115;-34
2023/05/22 07:54:13;;;;;;;3.80;2.08;;;;;;;22.05;46.65;101662.50;5021771;28;20437;-34
2023/05/22 07:56:40;;;;;;;2.97;2.13;;;;;;;22.05;47.11;101657.09;5020087;28;20080;-33
2023/05/22 07:59:09;;;;;;;3.08;1.80;;;;;;;22.06;46.80;101661.50;5022964;28;20076;-34
2023/05/22 08:01:40;;;;;;;3.22;2.05;;;;;;;22.07;46.94;101656.94;5023280;28;20053;-34
2023/05/22 08:04:07;;;;;;;3.22;2.17;;;;;;;22.07;46.90;101657.81;5023882;28;20340;-33
2023/05/22 08:06:34;;;;;;;2.25;1.88;;;;;;;22.07;46.93;101657.81;5024366;28;20061;-33
2023/05/22 08:09:01;;;;;;;2.80;2.13;;;;;;;22.08;46.84;101662.19;5022354;28;20068;-33
2023/05/22 08:11:28;;;;;;;2.35;1.90;;;;;;;22.09;46.88;101655.78;5018994;28;20112;-34
2023/05/22 08:13:55;;;;;;;3.30;1.95;;;;;;;22.09;46.70;101661.19;5021272;28;20449;-33
2023/05/22 08:16:22;;;;;;;3.95;2.50;;;;;;;22.10;46.42;101668.25;5022281;28;20096;-34
2023/05/22 08:18:49;;;;;;;2.65;1.95;;;;;;;22.10;46.81;101660.16;5023882;28;20054;-34
2023/05/22 08:21:16;;;;;;;2.50;1.83;;;;;;;22.11;46.93;101664.56;5023113;28;20054;-34
2023/05/22 08:23:42;;;;;;;2.25;2.03;;;;;;;22.11;46.99;101659.19;5020392;28;20433;-35
2023/05/22 08:26:09;;;;;;;3.55;2.38;;;;;;;22.13;46.79;101667.13;5019793;28;20053;-35
2023/05/22 08:28:36;;;;;;;2.78;2.00;;;;;;;22.14;47.02;101664.25;5020208;28;20046;-34
2023/05/22 08:31:02;;;;;;;2.30;1.88;;;;;;;22.13;46.93;101659.88;5025231;28;20126;-34
2023/05/22 08:33:29;;;;;;;2.83;2.30;;;;;;;22.16;46.73;101666.81;5030045;28;20567;-34
2023/05/22 08:35:56;;;;;;;2.78;1.80;;;;;;;22.16;47.01;101659.56;5025914;28;20380;-34
2023/05/22 08:38:22;;;;;;;2.90;2.15;;;;;;;22.16;46.87;101658.72;5020952;28;20104;-34
2023/05/22 08:40:52;;;;;;;2.38;1.77;;;;;;;22.17;47.04;101655.00;5021895;28;20108;-34
2023/05/22 08:43:20;;;;;;;5.72;2.13;;;;;;;22.17;46.98;101653.16;5027376;28;20103;-34
2023/05/22 08:45:56;;;;;;;3.55;2.40;;;;;;;22.19;46.95;101655.66;5029887;28;20049;-34
2023/05/22 08:48:23;;;;;;;3.22;2.03;;;;;;;22.18;47.06;101654.84;5027054;28;20042;-34
2023/05/22 08:50:58;;;;;;;2.70;2.10;;;;;;;22.21;46.99;101647.44;5023311;28;20049;-34
2023/05/22 08:53:27;;;;;;;2.45;2.05;;;;;;;22.22;46.78;101652.66;5018234;28;20056;-35
2023/05/22 08:55:55;;;;;;;2.53;2.08;;;;;;;22.22;46.98;101646.41;5018453;28;20100;-34
2023/05/22 08:58:22;;;;;;;3.20;2.20;;;;;;;22.24;47.07;101641.72;5024128;28;20049;-34
2023/05/22 09:00:49;;;;;;;3.90;2.55;;;;;;;22.23;46.81;101643.56;5019500;28;20143;-35
2023/05/22 09:03:17;;;;;;;3.05;2.22;;;;;;;22.25;47.09;101641.53;5016630;28;20128;-34
2023/05/22 09:05:44;;;;;;;2.78;1.92;;;;;;;22.27;47.01;101639.53;5032817;28;20046;-35
2023/05/22 09:08:10;;;;;;;2.67;2.30;;;;;;;22.28;46.77;101635.81;5019660;28;20052;-34
2023/05/22 09:10:46;;;;;;;2.97;2.40;;;;;;;22.30;47.03;101641.03;5019750;28;20064;-34
2023/05/22 09:13:23;;;;;;;3.22;2.55;;;;;;;22.31;46.84;101634.63;5019290;28;20760;-35
2023/05/22 09:15:50;;;;;;;2.88;2.13;;;;;;;22.34;47.04;101645.13;5020115;28;20057;-34
2023/05/22 09:18:16;;;;;;;4.10;2.47;;;;;;;22.33;46.99;101635.31;5020347;28;20125;-34
2023/05/22 09:20:43;;;;;;;3.38;2.60;;;;;;;22.36;47.06;101633.16;5018688;28;20130;-34
2023/05/22 09:23:16;;;;;;;3.38;2.55;;;;;;;22.38;46.84;101635.69;5021600;28;20285;-34
2023/05/22 09:25:43;;;;;;;3.65;2.22;;;;;;;22.41;46.98;101628.09;5025204;28;20107;-34
2023/05/22 09:28:11;;;;;;;4.15;2.60;;;;;;;22.43;46.85;101641.44;5017769;28;20092;-34
2023/05/22 09:30:38;;;;;;;3.03;2.42;;;;;;;22.46;47.10;101638.41;5020520;28;20045;-35
2023/05/22 09:33:07;;;;;;;2.78;2.28;;;;;;;22.50;46.93;101628.13;5019151;28;20056;-35
2023/05/22 09:35:37;;;;;;;3.90;2.38;;;;;;;22.54;46.69;101627.63;5025910;28;20100;-34
2023/05/22 09:38:05;;;;;;;3.50;2.40;;;;;;;22.59;46.88;101627.13;5021156;28;20052;-34
2023/05/22 09:40:33;;;;;;;2.95;2.40;;;;;;;22.63;46.70;101628.50;5020069;28;20053;-34
2023/05/22 09:43:05;;;;;;;3.85;2.53;;;;;;;22.66;46.60;101629.00;5019617;28;20128;-35
2023/05/22 09:45:34;;;;;;;3.72;2.42;;;;;;;22.72;47.04;101629.38;5022934;28;20160;-34
2023/05/22 09:48:02;;;;;;;2.42;2.15;;;;;;;22.76;47.04;101628.03;5026426;28;20495;-34
2023/05/22 09:50:29;;;;;;;2.45;1.92;;;;;;;22.79;46.98;101622.28;5025501;28;20084;-35
2023/05/22 09:53:00;;;;;;;2.95;2.60;;;;;;;22.83;46.65;101629.03;5018662;28;20334;-35
2023/05/22 09:55:27;;;;;;;2.67;2.35;;;;;;;22.87;47.01;101630.41;5025470;28;20076;-34
2023/05/22 09:57:55;;;;;;;3.30;2.28;;;;;;;22.90;46.71;101638.19;5022474;28;20053;-34
2023/05/22 10:00:23;;;;;;;3.47;2.45;;;;;;;22.94;46.85;101638.72;5026453;28;20433;-34
2023/05/22 10:03:08;;;;;;;2.78;2.30;;;;;;;22.97;46.49;101624.88;5026980;28;20054;-36
2023/05/22 10:05:36;;;;;;;3.22;2.20;;;;;;;23.02;46.84;101619.81;5024445;28;20065;-35
2023/05/22 10:08:13;;;;;;;3.25;2.55;;;;;;;23.05;47.11;101617.63;5020787;28;20447;-34
2023/05/22 10:10:41;;;;;;;2.88;2.28;;;;;;;23.08;46.33;101622.69;5022259;28;20172;-34
2023/05/22 10:13:09;;;;;;;2.97;2.42;;;;;;;23.11;46.76;101627.75;5022033;28;20058;-35
2023/05/22 10:15:37;;;;;;;4.93;2.55;;;;;;;23.14;46.95;101624.72;5027620;28;20119;-35
2023/05/22 10:18:04;;;;;;;3.90;2.17;;;;;;;23.15;46.53;101623.69;5025590;28;20127;-35
2023/05/22 10:20:31;;;;;;;3.97;2.40;;;;;;;23.17;46.60;101622.72;5026035;28;20050;-34
2023/05/22 10:23:01;;;;;;;4.70;2.63;;;;;;;23.15;46.65;101629.09;5020805;28;20137;-35
2023/05/22 10:25:29;;;;;;;4.53;2.95;;;;;;;23.15;46.72;101626.41;5022139;28;20046;-34
2023/05/22 10:27:58;;;;;;;3.30;2.45;;;;;;;23.16;46.66;101627.28;5039211;28;20072;-34
2023/05/22 10:30:38;;;;;;;3.15;2.53;;;;;;;23.18;46.43;101630.63;5021835;28;20045;-34
2023/05/22 10:33:08;;;;;;;3.20;2.50;;;;;;;23.21;46.91;101626.75;5026038;28;20375;-34
2023/05/22 10:35:40;;;;;;;3.10;2.50;;;;;;;23.23;46.40;101617.44;5022792;28;20050;-34
2023/05/22 10:38:48;;;;;;;5.72;2.80;;;;;;;23.23;46.94;101617.44;5023097;28;20430;-34
2023/05/22 10:41:15;;;;;;;2.90;2.30;;;;;;;23.30;46.34;101623.03;5033248;28;20049;-34
2023/05/22 10:43:42;;;;;;;2.78;2.50;;;;;;;23.32;46.65;101610.19;5024059;28;20050;-35
2023/05/22 10:46:11;;;;;;;3.78;2.60;;;;;;;23.34;46.17;101616.25;5020895;28;20058;-35
2023/05/22 10:48:44;;;;;;;3.38;2.60;;;;;;;23.35;46.29;101615.25;5024059;28;20050;-35
2023/05/22 10:51:18;;;;;;;3.50;2.83;;;;;;;23.38;46.48;101617.63;5019207;28;20421;-33
2023/05/22 10:53:52;;;;;;;2.47;2.28;;;;;;;23.40;46.70;101604.78;5025322;28;20464;-33
2023/05/22 10:56:18;;;;;;;3.22;2.42;;;;;;;23.43;46.21;101607.13;5030120;28;20136;-34
2023/05/22 10:59:06;;;;;;;3.05;2.50;;;;;;;23.44;46.18;101610.66;5022841;28;20045;-33
2023/05/22 11:01:36;;;;;;;2.85;2.55;;;;;;;23.48;46.50;101606.59;5034424;28;20046;-34
2023/05/22 11:04:05;;;;;;;4.50;2.67;;;;;;;23.52;46.75;101605.28;5020000;28;20042;-34
2023/05/22 11:06:42;;;;;;;4.28;2.90;;;;;;;23.53;46.64;101609.66;5024279;28;20403;-34
2023/05/22 11:09:17;;;;;;;3.40;2.58;;;;;;;23.54;46.64;101609.47;5024062;28;20085;-34
2023/05/22 11:11:45;;;;;;;4.07;2.97;;;;;;;23.57;46.49;101608.31;5021451;28;20057;-34
2023/05/22 11:14:16;;;;;;;3.70;3.03;;;;;;;23.56;45.83;101603.91;5023115;28;20053;-35
2023/05/22 11:16:43;;;;;;;3.08;2.47;;;;;;;23.57;46.01;101597.47;5017741;28;20050;-37
2023/05/22 11:19:09;;;;;;;2.88;2.20;;;;;;;23.57;46.06;101597.47;5023240;28;20103;-34
2023/05/22 11:21:49;;;;;;;3.70;2.70;;;;;;;23.59;45.88;101600.84;5020829;28;20053;-34
2023/05/22 11:24:18;;;;;;;4.40;2.83;;;;;;;23.59;46.19;101592.72;5019097;28;20550;-34
2023/05/22 11:27:01;;;;;;;4.07;3.08;;;;;;;23.59;46.23;101598.97;5022938;28;20081;-34
2023/05/22 11:29:28;;;;;;;2.92;2.65;;;;;;;23.62;46.44;101597.78;5025438;28;20573;-34
2023/05/22 11:31:56;;;;;;;2.53;2.25;;;;;;;23.62;46.30;101595.94;5021576;28;20058;-34
2023/05/22 11:34:24;;;;;;;3.72;3.15;;;;;;;23.64;46.08;101596.63;5019943;28;20422;-34